Time;durP1;ratioP1;P1;durP2;ratioP2;P2;SDS_P1;SDS_P2;PMS_P1;PMS_P2;Temp;Humidity;BMP_temperature;BMP_pressure;BME280_temperature;BME280_humidity;BME280_pressure;Samples;Min_cycle;Max_cycle;Signal;HPM_P1;HPM_P2
2021/08/24 11:31:08;;;;;;;3.08;2.88;;;;;;;;;;5090931;27;20961;-77
2021/08/24 11:33:37;;;;;;;2.65;2.45;;;;;;;;;;5090918;28;20198;-77
2021/08/24 11:36:06;;;;;;;4.15;2.80;;;;;;;;;;5090809;28;20221;-78
2021/08/24 11:38:39;;;;;;;2.72;2.60;;;;;;;;;;5089458;28;20583;-78
2021/08/24 11:41:13;;;;;;;4.10;2.80;;;;;;;;;;5089420;28;20171;-78
2021/08/24 11:43:48;;;;;;;2.55;2.35;;;;;;;;;;5090696;28;20384;-78
2021/08/24 11:46:28;;;;;;;4.25;2.25;;;;;;;;;;5090707;28;20167;-78
2021/08/24 11:49:02;;;;;;;2.55;2.35;;;;;;;;;;5090595;28;20279;-78
2021/08/24 11:51:31;;;;;;;2.55;2.42;;;;;;;;;;5089250;28;20167;-78
2021/08/24 11:54:26;;;;;;;2.38;2.17;;;;;;;;;;5090465;28;20164;-78
2021/08/24 11:57:12;;;;;;;2.30;2.10;;;;;;;;;;5084429;28;20175;-78
2021/08/24 11:59:51;;;;;;;2.42;2.20;;;;;;;;;;5089660;28;20183;-78
2021/08/24 12:02:19;;;;;;;3.40;2.35;;;;;;;;;;5089049;28;20179;-78
2021/08/24 12:04:48;;;;;;;3.05;2.42;;;;;;;;;;5090191;28;20179;-78
2021/08/24 12:07:17;;;;;;;2.38;2.17;;;;;;;;;;5090298;28;20266;-78
2021/08/24 12:09:53;;;;;;;2.20;2.10;;;;;;;;;;5088814;28;20287;-78
2021/08/24 12:12:38;;;;;;;2.45;2.25;;;;;;;;;;5090139;28;20199;-78
2021/08/24 12:15:06;;;;;;;2.45;2.22;;;;;;;;;;5090120;28;20179;-78
2021/08/24 12:17:33;;;;;;;2.80;2.28;;;;;;;;;;5090179;28;20217;-78
2021/08/24 12:20:05;;;;;;;3.33;2.25;;;;;;;;;;5089015;28;20530;-78
2021/08/24 12:22:36;;;;;;;6.50;2.90;;;;;;;;;;5090000;28;20580;-78
2021/08/24 12:25:09;;;;;;;2.67;2.47;;;;;;;;;;5089905;28;20172;-78
2021/08/24 12:27:41;;;;;;;5.43;2.35;;;;;;;;;;5088610;28;20656;-78
2021/08/24 12:30:19;;;;;;;4.50;2.58;;;;;;;;;;5089666;28;20703;-78
2021/08/24 12:32:48;;;;;;;3.13;2.55;;;;;;;;;;5088451;28;20520;-78
2021/08/24 12:35:17;;;;;;;2.58;2.38;;;;;;;;;;5089657;28;20263;-78
2021/08/24 12:37:49;;;;;;;2.97;2.67;;;;;;;;;;5089721;28;20172;-78
2021/08/24 12:40:21;;;;;;;3.28;2.40;;;;;;;;;;5087319;28;20176;-78
2021/08/24 12:43:02;;;;;;;3.35;2.40;;;;;;;;;;5075903;28;20168;-78
2021/08/24 12:45:32;;;;;;;2.67;2.47;;;;;;;;;;5076162;28;20243;-79
2021/08/24 12:48:17;;;;;;;3.92;2.70;;;;;;;;;;5075933;28;20521;-78
2021/08/24 12:50:45;;;;;;;8.05;2.53;;;;;;;;;;5075832;28;20225;-78
2021/08/24 12:53:24;;;;;;;3.15;2.70;;;;;;;;;;5074675;28;20207;-78
2021/08/24 12:55:50;;;;;;;4.45;2.50;;;;;;;;;;5075855;28;20199;-78
2021/08/24 12:58:16;;;;;;;5.35;2.70;;;;;;;;;;5075837;28;20156;-78
2021/08/24 13:00:43;;;;;;;3.22;3.00;;;;;;;;;;5075723;28;20213;-79
2021/08/24 13:03:09;;;;;;;2.35;2.15;;;;;;;;;;5074424;28;20180;-79
2021/08/24 13:05:36;;;;;;;4.05;2.50;;;;;;;;;;5075588;28;20176;-79
2021/08/24 13:08:04;;;;;;;3.13;2.38;;;;;;;;;;5075676;28;20652;-79
2021/08/24 13:10:32;;;;;;;2.72;2.53;;;;;;;;;;5075486;28;20222;-78
2021/08/24 13:12:59;;;;;;;5.70;2.50;;;;;;;;;;5075440;28;20163;-76
2021/08/24 13:15:25;;;;;;;2.40;2.20;;;;;;;;;;5075447;28;20175;-79
2021/08/24 13:17:53;;;;;;;4.38;3.05;;;;;;;;;;5074121;28;20168;-77
2021/08/24 13:20:33;;;;;;;3.13;2.75;;;;;;;;;;5075415;28;20171;-76
2021/08/24 13:23:03;;;;;;;2.67;2.45;;;;;;;;;;5075346;28;20195;-76
2021/08/24 13:25:35;;;;;;;5.20;3.20;;;;;;;;;;5075292;28;20175;-76
2021/08/24 13:28:06;;;;;;;2.88;2.58;;;;;;;;;;5075326;28;20381;-76
2021/08/24 13:30:37;;;;;;;2.53;2.33;;;;;;;;;;5073750;28;20227;-77
2021/08/24 13:33:07;;;;;;;6.25;2.53;;;;;;;;;;5073902;28;20178;-77
2021/08/24 13:35:35;;;;;;;3.15;2.75;;;;;;;;;;5075057;28;20172;-77
2021/08/24 13:38:19;;;;;;;5.20;2.70;;;;;;;;;;5075188;28;20542;-77
2021/08/24 13:40:46;;;;;;;4.78;2.58;;;;;;;;;;5074910;28;20234;-76
2021/08/24 13:43:12;;;;;;;2.40;2.20;;;;;;;;;;5074909;28;20176;-77
2021/08/24 13:45:51;;;;;;;3.17;2.50;;;;;;;;;;5075356;28;20168;-77
2021/08/24 13:48:18;;;;;;;4.47;3.20;;;;;;;;;;5074832;28;20171;-77
2021/08/24 13:50:44;;;;;;;4.22;2.90;;;;;;;;;;5074820;28;20164;-77
2021/08/24 13:53:20;;;;;;;3.15;2.95;;;;;;;;;;5073789;28;20176;-76
2021/08/24 13:55:51;;;;;;;3.25;2.95;;;;;;;;;;5074761;28;20167;-77
2021/08/24 13:58:19;;;;;;;4.18;2.60;;;;;;;;;;5073356;28;20237;-77
2021/08/24 14:01:00;;;;;;;2.90;2.70;;;;;;;;;;5074517;28;20558;-77
2021/08/24 14:03:26;;;;;;;4.40;2.92;;;;;;;;;;5074569;28;20170;-77
2021/08/24 14:05:57;;;;;;;2.92;2.55;;;;;;;;;;5074559;28;20201;-77
2021/08/24 14:08:24;;;;;;;4.05;2.63;;;;;;;;;;5073207;28;20195;-77
2021/08/24 14:10:57;;;;;;;5.15;2.40;;;;;;;;;;5074341;28;20168;-76
2021/08/24 14:13:24;;;;;;;3.05;2.50;;;;;;;;;;5074390;28;20171;-76
2021/08/24 14:15:52;;;;;;;2.65;2.40;;;;;;;;;;5074352;28;20216;-78
2021/08/24 14:18:21;;;;;;;2.60;2.40;;;;;;;;;;5074278;28;20309;-77
2021/08/24 14:20:49;;;;;;;3.17;2.38;;;;;;;;;;5074130;28;20203;-77
2021/08/24 14:23:21;;;;;;;2.97;2.70;;;;;;;;;;5072857;28;20719;-78
2021/08/24 14:25:49;;;;;;;3.05;2.75;;;;;;;;;;5074112;28;20176;-77
2021/08/24 14:28:19;;;;;;;2.90;2.22;;;;;;;;;;5074088;28;20172;-78
2021/08/24 14:30:46;;;;;;;2.50;2.33;;;;;;;;;;5073901;28;20302;-77
2021/08/24 14:33:17;;;;;;;2.80;2.60;;;;;;;;;;5074041;28;20254;-78
2021/08/24 14:35:55;;;;;;;4.53;2.88;;;;;;;;;;5072699;28;20168;-77
2021/08/24 14:38:24;;;;;;;2.28;2.17;;;;;;;;;;5073948;28;20266;-78
2021/08/24 14:40:50;;;;;;;3.15;2.20;;;;;;;;;;5072494;28;20200;-78
2021/08/24 14:43:18;;;;;;;3.95;2.60;;;;;;;;;;5074025;28;20171;-77
2021/08/24 14:45:51;;;;;;;2.42;2.00;;;;;;;;;;5073900;28;20613;-77
2021/08/24 14:48:18;;;;;;;3.03;2.80;;;;;;;;;;5072473;28;20176;-78
2021/08/24 14:50:44;;;;;;;6.15;3.53;;;;;;;;;;5073701;28;20225;-77
2021/08/24 14:53:13;;;;;;;2.78;2.58;;;;;;;;;;5073711;28;20175;-78
2021/08/24 14:55:40;;;;;;;2.55;2.35;;;;;;;;;;5073648;28;20176;-78
2021/08/24 14:58:24;;;;;;;2.80;2.60;;;;;;;;;;5072315;28;20232;-77
2021/08/24 15:00:53;;;;;;;4.15;2.67;;;;;;;;;;5073585;28;20289;-77
2021/08/24 15:03:21;;;;;;;3.05;2.20;;;;;;;;;;5073458;28;20175;-77
2021/08/24 15:05:48;;;;;;;2.47;2.28;;;;;;;;;;5073366;28;20172;-78
2021/08/24 15:08:26;;;;;;;2.45;2.25;;;;;;;;;;5072160;28;20822;-77
2021/08/24 15:11:03;;;;;;;2.97;2.78;;;;;;;;;;5073430;28;20209;-77
2021/08/24 15:13:33;;;;;;;2.50;2.28;;;;;;;;;;5073368;28;20179;-78
2021/08/24 15:16:21;;;;;;;2.58;2.35;;;;;;;;;;5073428;28;20183;-77
2021/08/24 15:18:55;;;;;;;2.25;2.13;;;;;;;;;;5073258;28;20246;-78
2021/08/24 15:21:29;;;;;;;2.60;2.40;;;;;;;;;;5073368;28;20167;-78
2021/08/24 15:23:58;;;;;;;9.48;2.75;;;;;;;;;;5073329;28;20262;-78
2021/08/24 15:26:24;;;;;;;2.92;2.63;;;;;;;;;;5073271;28;20621;-78
2021/08/24 15:29:09;;;;;;;2.40;2.22;;;;;;;;;;5071819;28;20168;-78
2021/08/24 15:31:35;;;;;;;2.05;1.95;;;;;;;;;;5071990;28;20171;-78
2021/08/24 15:34:02;;;;;;;4.63;2.28;;;;;;;;;;5073239;28;20174;-79
2021/08/24 15:36:29;;;;;;;2.35;2.15;;;;;;;;;;5071902;28;20195;-78
2021/08/24 15:38:55;;;;;;;4.07;2.35;;;;;;;;;;5073061;28;20180;-79
2021/08/24 15:41:23;;;;;;;3.35;2.50;;;;;;;;;;5073161;28;20172;-79
2021/08/24 15:44:06;;;;;;;20.73;3.80;;;;;;;;;;5073093;28;20172;-79
2021/08/24 15:46:33;;;;;;;2.42;2.22;;;;;;;;;;5073157;28;20167;-78
2021/08/24 15:49:01;;;;;;;2.35;2.15;;;;;;;;;;5073017;28;20199;-79
2021/08/24 15:51:28;;;;;;;2.90;2.60;;;;;;;;;;5073067;28;20168;-79
2021/08/24 15:53:54;;;;;;;2.95;2.75;;;;;;;;;;5071732;28;20178;-79
2021/08/24 15:56:20;;;;;;;3.72;3.35;;;;;;;;;;5073091;28;20160;-79
2021/08/24 15:58:46;;;;;;;4.35;2.85;;;;;;;;;;5071568;28;20167;-79
2021/08/24 16:01:12;;;;;;;2.70;2.10;;;;;;;;;;5071660;28;20562;-79
2021/08/24 16:03:38;;;;;;;3.03;2.50;;;;;;;;;;5072923;28;20199;-80
2021/08/24 16:06:04;;;;;;;3.50;2.55;;;;;;;;;;5072809;28;20609;-79
2021/08/24 16:08:30;;;;;;;2.78;2.58;;;;;;;;;;5072835;28;20176;-79
2021/08/24 16:10:56;;;;;;;3.35;2.47;;;;;;;;;;5072705;28;20168;-79
2021/08/24 16:13:22;;;;;;;2.53;2.33;;;;;;;;;;5071417;28;20179;-79
2021/08/24 16:15:48;;;;;;;2.35;2.03;;;;;;;;;;5073021;28;20176;-79
2021/08/24 16:18:33;;;;;;;2.33;2.20;;;;;;;;;;5075006;28;20175;-79
2021/08/24 16:20:59;;;;;;;3.13;2.83;;;;;;;;;;5076197;28;20199;-79
2021/08/24 16:23:26;;;;;;;2.67;2.10;;;;;;;;;;5076377;28;20612;-79
2021/08/24 16:25:52;;;;;;;5.20;2.65;;;;;;;;;;5076345;28;20171;-79
2021/08/24 16:28:18;;;;;;;4.90;2.20;;;;;;;;;;5076410;28;20172;-79
2021/08/24 16:30:44;;;;;;;4.25;2.42;;;;;;;;;;5076678;28;20216;-79
2021/08/24 16:33:10;;;;;;;3.92;2.25;;;;;;;;;;5076647;28;20179;-79
2021/08/24 16:35:38;;;;;;;2.42;2.33;;;;;;;;;;5075215;28;20202;-79
2021/08/24 16:38:10;;;;;;;3.40;2.53;;;;;;;;;;5076351;28;20171;-78
2021/08/24 16:40:38;;;;;;;6.15;2.40;;;;;;;;;;5075300;28;20618;-78
2021/08/24 16:43:04;;;;;;;3.47;2.50;;;;;;;;;;5076300;28;20175;-78
2021/08/24 16:45:30;;;;;;;8.45;3.03;;;;;;;;;;5076258;28;20172;-79
2021/08/24 16:47:57;;;;;;;4.60;2.65;;;;;;;;;;5076200;28;20556;-78
2021/08/24 16:50:23;;;;;;;3.42;2.35;;;;;;;;;;5076400;28;20168;-79
2021/08/24 16:52:49;;;;;;;2.42;2.28;;;;;;;;;;5076101;28;20172;-78
2021/08/24 16:55:17;;;;;;;2.38;2.17;;;;;;;;;;5076078;28;20220;-79
2021/08/24 16:57:43;;;;;;;3.78;2.83;;;;;;;;;;5076073;28;20202;-79
2021/08/24 17:00:10;;;;;;;4.95;2.55;;;;;;;;;;5076172;28;20231;-79
2021/08/24 17:02:42;;;;;;;3.95;2.55;;;;;;;;;;5074712;28;20168;-80
2021/08/24 17:05:09;;;;;;;2.05;1.92;;;;;;;;;;5075817;28;20171;-80
2021/08/24 17:07:36;;;;;;;4.20;2.53;;;;;;;;;;5075801;28;20741;-80
2021/08/24 17:10:03;;;;;;;2.53;2.33;;;;;;;;;;5078486;28;20168;-79
2021/08/24 17:12:29;;;;;;;2.10;2.00;;;;;;;;;;5076626;28;20168;-78
2021/08/24 17:14:55;;;;;;;3.72;2.20;;;;;;;;;;5075587;28;20579;-78
2021/08/24 17:17:21;;;;;;;2.17;1.98;;;;;;;;;;5076085;28;20168;-79
2021/08/24 17:19:47;;;;;;;2.38;2.10;;;;;;;;;;5075751;28;20191;-79
2021/08/24 17:22:12;;;;;;;2.72;1.95;;;;;;;;;;5075851;28;20168;-78
2021/08/24 17:24:38;;;;;;;3.15;1.98;;;;;;;;;;5075845;28;20168;-79
2021/08/24 17:27:04;;;;;;;4.03;2.40;;;;;;;;;;5075719;28;20207;-79
2021/08/24 17:29:30;;;;;;;3.45;2.42;;;;;;;;;;5075771;28;20227;-79
2021/08/24 17:31:56;;;;;;;2.67;2.47;;;;;;;;;;5075623;28;20171;-79
2021/08/24 17:34:23;;;;;;;2.40;2.20;;;;;;;;;;5075458;28;20176;-79
2021/08/24 17:36:49;;;;;;;5.43;2.67;;;;;;;;;;5075539;28;20171;-80
2021/08/24 17:39:17;;;;;;;2.20;2.10;;;;;;;;;;5073988;28;20207;-79
2021/08/24 17:41:42;;;;;;;2.80;2.60;;;;;;;;;;5075339;28;20155;-79
2021/08/24 17:44:10;;;;;;;3.00;2.33;;;;;;;;;;5075081;28;20640;-79
2021/08/24 17:46:36;;;;;;;2.25;2.10;;;;;;;;;;5075171;28;20160;-78
2021/08/24 17:49:03;;;;;;;2.92;2.45;;;;;;;;;;5074764;28;20625;-79
2021/08/24 17:51:29;;;;;;;3.85;2.33;;;;;;;;;;5075008;28;20168;-79
2021/08/24 17:53:58;;;;;;;3.70;2.10;;;;;;;;;;5074799;28;20585;-78
2021/08/24 17:56:26;;;;;;;3.05;2.60;;;;;;;;;;5074929;28;20160;-78
2021/08/24 17:58:52;;;;;;;4.60;2.40;;;;;;;;;;5074937;28;20249;-78
2021/08/24 18:01:18;;;;;;;2.42;2.22;;;;;;;;;;5074854;28;20168;-78
2021/08/24 18:03:44;;;;;;;2.47;2.28;;;;;;;;;;5074885;28;20175;-78
2021/08/24 18:06:37;;;;;;;2.88;2.60;;;;;;;;;;5074745;28;20531;-78
2021/08/24 18:09:05;;;;;;;3.63;2.40;;;;;;;;;;5073481;28;20565;-78
2021/08/24 18:11:31;;;;;;;2.53;2.33;;;;;;;;;;5073546;28;20176;-78
2021/08/24 18:13:57;;;;;;;2.47;2.28;;;;;;;;;;5074650;28;20646;-78
2021/08/24 18:16:23;;;;;;;3.08;2.78;;;;;;;;;;5073464;28;20168;-78
2021/08/24 18:18:49;;;;;;;2.90;2.70;;;;;;;;;;5074509;28;20169;-78
2021/08/24 18:21:16;;;;;;;2.55;2.35;;;;;;;;;;5074572;28;20199;-78
2021/08/24 18:23:42;;;;;;;4.22;2.50;;;;;;;;;;5074437;28;20196;-78
2021/08/24 18:26:08;;;;;;;2.35;2.15;;;;;;;;;;5074410;28;20171;-78
2021/08/24 18:28:34;;;;;;;2.20;2.00;;;;;;;;;;5073375;28;20520;-78
2021/08/24 18:31:00;;;;;;;2.67;2.13;;;;;;;;;;5074644;28;20175;-77
